sensor_id;sensor_type;location;lat;lon;timestamp;pressure;altitude;pressure_sealevel;temperature;humidity
41044;BME280;51680;49.806;18.774;2023-06-10T00:01:03;97101.16;;;20.43;84.25
41044;BME280;51680;49.806;18.774;2023-06-10T00:04:05;97105.00;;;20.32;84.81
41044;BME280;51680;49.806;18.774;2023-06-10T00:07:08;97100.31;;;20.26;85.17
41044;BME280;51680;49.806;18.774;2023-06-10T00:10:10;97094.19;;;20.18;85.58
41044;BME280;51680;49.806;18.774;2023-06-10T00:13:12;97100.16;;;20.20;85.40
41044;BME280;51680;49.806;18.774;2023-06-10T00:16:14;97092.91;;;20.30;84.95
41044;BME280;51680;49.806;18.774;2023-06-10T00:19:17;97100.84;;;20.38;84.85
41044;BME280;51680;49.806;18.774;2023-06-10T00:22:21;97095.53;;;20.46;84.64
41044;BME280;51680;49.806;18.774;2023-06-10T00:25:22;97101.34;;;20.49;84.33
41044;BME280;51680;49.806;18.774;2023-06-10T00:28:24;97094.56;;;20.55;84.26
41044;BME280;51680;49.806;18.774;2023-06-10T00:31:26;97093.88;;;20.61;83.70
41044;BME280;51680;49.806;18.774;2023-06-10T00:34:28;97101.31;;;20.65;83.50
41044;BME280;51680;49.806;18.774;2023-06-10T00:37:31;97099.00;;;20.70;83.60
41044;BME280;51680;49.806;18.774;2023-06-10T00:40:39;97101.47;;;20.72;83.41
41044;BME280;51680;49.806;18.774;2023-06-10T00:43:41;97111.13;;;20.73;83.52
41044;BME280;51680;49.806;18.774;2023-06-10T00:46:42;97103.97;;;20.73;83.44
41044;BME280;51680;49.806;18.774;2023-06-10T00:49:45;97117.91;;;20.75;83.40
41044;BME280;51680;49.806;18.774;2023-06-10T00:52:48;97111.78;;;20.75;83.51
41044;BME280;51680;49.806;18.774;2023-06-10T00:55:51;97115.44;;;20.74;83.40
41044;BME280;51680;49.806;18.774;2023-06-10T00:58:54;97111.78;;;20.75;83.34
41044;BME280;51680;49.806;18.774;2023-06-10T01:01:56;97121.53;;;20.74;83.46
41044;BME280;51680;49.806;18.774;2023-06-10T01:04:59;97113.41;;;20.76;83.41
41044;BME280;51680;49.806;18.774;2023-06-10T01:08:07;97112.78;;;20.74;83.54
41044;BME280;51680;49.806;18.774;2023-06-10T01:11:15;97109.13;;;20.75;83.65
41044;BME280;51680;49.806;18.774;2023-06-10T01:14:19;97107.31;;;20.75;83.41
41044;BME280;51680;49.806;18.774;2023-06-10T01:17:21;97115.44;;;20.74;83.25
41044;BME280;51680;49.806;18.774;2023-06-10T01:20:23;97113.78;;;20.73;83.17
41044;BME280;51680;49.806;18.774;2023-06-10T01:23:28;97107.78;;;20.71;83.27
41044;BME280;51680;49.806;18.774;2023-06-10T01:26:32;97112.63;;;20.67;82.98
41044;BME280;51680;49.806;18.774;2023-06-10T01:29:37;97110.97;;;20.66;83.01
41044;BME280;51680;49.806;18.774;2023-06-10T01:32:45;97105.81;;;20.65;82.93
41044;BME280;51680;49.806;18.774;2023-06-10T01:35:50;97116.75;;;20.62;82.94
41044;BME280;51680;49.806;18.774;2023-06-10T01:38:54;97111.78;;;20.59;83.09
41044;BME280;51680;49.806;18.774;2023-06-10T01:41:57;97114.59;;;20.57;83.04
41044;BME280;51680;49.806;18.774;2023-06-10T01:44:59;97117.25;;;20.57;83.16
41044;BME280;51680;49.806;18.774;2023-06-10T01:48:01;97120.22;;;20.54;83.26
41044;BME280;51680;49.806;18.774;2023-06-10T01:51:03;97120.22;;;20.54;83.33
41044;BME280;51680;49.806;18.774;2023-06-10T01:54:06;97123.88;;;20.53;83.48
41044;BME280;51680;49.806;18.774;2023-06-10T01:57:08;97124.22;;;20.50;83.67
41044;BME280;51680;49.806;18.774;2023-06-10T02:00:11;97130.34;;;20.51;83.79
41044;BME280;51680;49.806;18.774;2023-06-10T02:03:16;97137.66;;;20.49;83.96
41044;BME280;51680;49.806;18.774;2023-06-10T02:06:19;97131.50;;;20.48;84.13
41044;BME280;51680;49.806;18.774;2023-06-10T02:09:22;97127.06;;;20.49;83.90
41044;BME280;51680;49.806;18.774;2023-06-10T02:12:24;97132.34;;;20.49;83.96
41044;BME280;51680;49.806;18.774;2023-06-10T02:15:26;97132.34;;;20.49;84.07
41044;BME280;51680;49.806;18.774;2023-06-10T02:18:28;97137.66;;;20.49;84.06
41044;BME280;51680;49.806;18.774;2023-06-10T02:21:29;97133.47;;;20.46;84.44
41044;BME280;51680;49.806;18.774;2023-06-10T02:24:32;97139.78;;;20.45;84.20
41044;BME280;51680;49.806;18.774;2023-06-10T02:27:34;97136.31;;;20.45;84.16
41044;BME280;51680;49.806;18.774;2023-06-10T02:30:39;97138.13;;;20.44;84.23
41044;BME280;51680;49.806;18.774;2023-06-10T02:33:40;97133.00;;;20.43;84.17
41044;BME280;51680;49.806;18.774;2023-06-10T02:36:43;97137.50;;;20.42;84.20
41044;BME280;51680;49.806;18.774;2023-06-10T02:39:46;97139.28;;;20.42;84.31
41044;BME280;51680;49.806;18.774;2023-06-10T02:42:49;97129.69;;;20.41;84.38
41044;BME280;51680;49.806;18.774;2023-06-10T02:45:51;97138.66;;;20.40;84.35
41044;BME280;51680;49.806;18.774;2023-06-10T02:48:53;97136.81;;;20.40;84.34
41044;BME280;51680;49.806;18.774;2023-06-10T02:51:58;97141.09;;;20.41;84.20
41044;BME280;51680;49.806;18.774;2023-06-10T02:55:02;97137.81;;;20.39;84.25
41044;BME280;51680;49.806;18.774;2023-06-10T02:58:04;97136.31;;;20.37;84.34
41044;BME280;51680;49.806;18.774;2023-06-10T03:01:07;97139.28;;;20.34;84.53
41044;BME280;51680;49.806;18.774;2023-06-10T03:04:18;97144.59;;;20.34;84.44
41044;BME280;51680;49.806;18.774;2023-06-10T03:07:30;97142.94;;;20.33;84.50
41044;BME280;51680;49.806;18.774;2023-06-10T03:10:36;97137.97;;;20.30;84.69
41044;BME280;51680;49.806;18.774;2023-06-10T03:13:38;97146.56;;;20.16;85.65
41044;BME280;51680;49.806;18.774;2023-06-10T03:16:40;97139.91;;;20.20;84.81
41044;BME280;51680;49.806;18.774;2023-06-10T03:19:44;97139.91;;;20.20;84.94
41044;BME280;51680;49.806;18.774;2023-06-10T03:22:46;97150.38;;;20.21;84.94
41044;BME280;51680;49.806;18.774;2023-06-10T03:25:49;97162.47;;;20.24;85.24
41044;BME280;51680;49.806;18.774;2023-06-10T03:28:53;97155.81;;;20.20;85.09
41044;BME280;51680;49.806;18.774;2023-06-10T03:31:57;97155.19;;;20.18;85.20
41044;BME280;51680;49.806;18.774;2023-06-10T03:34:59;97153.38;;;20.18;85.50
41044;BME280;51680;49.806;18.774;2023-06-10T03:38:03;97154.78;;;20.05;85.91
41044;BME280;51680;49.806;18.774;2023-06-10T03:41:07;97152.50;;;20.10;85.57
41044;BME280;51680;49.806;18.774;2023-06-10T03:44:09;97150.13;;;19.99;86.72
41044;BME280;51680;49.806;18.774;2023-06-10T03:47:11;97145.84;;;20.06;85.85
41044;BME280;51680;49.806;18.774;2023-06-10T03:50:14;97154.84;;;20.13;86.11
41044;BME280;51680;49.806;18.774;2023-06-10T03:53:18;97156.16;;;20.09;86.96
41044;BME280;51680;49.806;18.774;2023-06-10T03:56:22;97154.50;;;20.24;85.92
41044;BME280;51680;49.806;18.774;2023-06-10T03:59:24;97153.69;;;20.31;86.11
41044;BME280;51680;49.806;18.774;2023-06-10T04:02:26;97152.56;;;20.42;85.83
41044;BME280;51680;49.806;18.774;2023-06-10T04:05:28;97156.88;;;20.51;85.50
41044;BME280;51680;49.806;18.774;2023-06-10T04:08:31;97159.53;;;20.59;85.37
41044;BME280;51680;49.806;18.774;2023-06-10T04:11:35;97153.56;;;20.65;85.32
41044;BME280;51680;49.806;18.774;2023-06-10T04:14:38;97153.22;;;20.68;84.97
41044;BME280;51680;49.806;18.774;2023-06-10T04:17:41;97152.91;;;20.71;85.03
41044;BME280;51680;49.806;18.774;2023-06-10T04:20:44;97154.22;;;20.75;84.97
41044;BME280;51680;49.806;18.774;2023-06-10T04:23:47;97158.38;;;20.77;84.74
41044;BME280;51680;49.806;18.774;2023-06-10T04:26:50;97159.72;;;20.81;84.87
41044;BME280;51680;49.806;18.774;2023-06-10T04:29:52;97158.69;;;20.82;84.62
41044;BME280;51680;49.806;18.774;2023-06-10T04:32:54;97157.53;;;20.85;84.83
41044;BME280;51680;49.806;18.774;2023-06-10T04:35:57;97163.34;;;20.88;84.79
41044;BME280;51680;49.806;18.774;2023-06-10T04:39:02;97152.25;;;20.93;84.67
41044;BME280;51680;49.806;18.774;2023-06-10T04:42:08;97162.22;;;20.99;84.72
41044;BME280;51680;49.806;18.774;2023-06-10T04:45:10;97162.53;;;21.04;84.54
41044;BME280;51680;49.806;18.774;2023-06-10T04:48:13;97149.75;;;21.07;84.61
41044;BME280;51680;49.806;18.774;2023-06-10T04:51:15;97153.88;;;21.18;84.12
41044;BME280;51680;49.806;18.774;2023-06-10T04:54:17;97158.81;;;21.29;83.95
41044;BME280;51680;49.806;18.774;2023-06-10T04:57:21;97162.81;;;21.33;83.76
41044;BME280;51680;49.806;18.774;2023-06-10T05:00:22;97159.81;;;21.36;83.94
41044;BME280;51680;49.806;18.774;2023-06-10T05:03:24;97169.44;;;21.37;83.85
41044;BME280;51680;49.806;18.774;2023-06-10T05:06:26;97166.47;;;21.32;84.04
41044;BME280;51680;49.806;18.774;2023-06-10T05:09:28;97163.44;;;21.35;84.11
41044;BME280;51680;49.806;18.774;2023-06-10T05:12:31;97165.13;;;21.36;84.30
41044;BME280;51680;49.806;18.774;2023-06-10T05:15:33;97167.59;;;21.37;84.22
41044;BME280;51680;49.806;18.774;2023-06-10T05:18:34;97174.44;;;21.32;84.05
41044;BME280;51680;49.806;18.774;2023-06-10T05:21:37;97172.78;;;21.15;84.51
41044;BME280;51680;49.806;18.774;2023-06-10T05:24:39;97178.13;;;20.99;85.11
41044;BME280;51680;49.806;18.774;2023-06-10T05:27:43;97180.78;;;20.91;85.50
41044;BME280;51680;49.806;18.774;2023-06-10T05:30:44;97178.44;;;20.80;86.04
41044;BME280;51680;49.806;18.774;2023-06-10T05:33:46;97177.28;;;20.66;87.11
41044;BME280;51680;49.806;18.774;2023-06-10T05:36:48;97179.75;;;20.76;86.95
41044;BME280;51680;49.806;18.774;2023-06-10T05:39:50;97173.47;;;20.69;86.83
41044;BME280;51680;49.806;18.774;2023-06-10T05:42:53;97178.59;;;20.70;87.12
41044;BME280;51680;49.806;18.774;2023-06-10T05:45:54;97176.13;;;20.69;87.34
41044;BME280;51680;49.806;18.774;2023-06-10T05:48:56;97179.44;;;20.71;87.31
41044;BME280;51680;49.806;18.774;2023-06-10T05:51:58;97179.75;;;20.68;87.41
41044;BME280;51680;49.806;18.774;2023-06-10T05:54:59;97177.47;;;20.73;86.98
41044;BME280;51680;49.806;18.774;2023-06-10T05:58:03;97175.94;;;20.78;87.10
41044;BME280;51680;49.806;18.774;2023-06-10T06:01:04;97183.09;;;20.78;86.99
41044;BME280;51680;49.806;18.774;2023-06-10T06:04:06;97188.06;;;20.81;86.67
41044;BME280;51680;49.806;18.774;2023-06-10T06:07:08;97190.38;;;20.84;86.59
41044;BME280;51680;49.806;18.774;2023-06-10T06:10:10;97199.03;;;20.78;87.01
41044;BME280;51680;49.806;18.774;2023-06-10T06:13:13;97202.97;;;20.66;87.24
41044;BME280;51680;49.806;18.774;2023-06-10T06:16:15;97196.84;;;20.57;87.55
41044;BME280;51680;49.806;18.774;2023-06-10T06:19:17;97194.19;;;20.57;88.33
41044;BME280;51680;49.806;18.774;2023-06-10T06:22:19;97188.41;;;20.70;87.94
41044;BME280;51680;49.806;18.774;2023-06-10T06:25:22;97196.38;;;20.78;86.96
41044;BME280;51680;49.806;18.774;2023-06-10T06:28:25;97195.53;;;20.85;87.28
41044;BME280;51680;49.806;18.774;2023-06-10T06:31:30;97198.03;;;21.03;86.85
41044;BME280;51680;49.806;18.774;2023-06-10T06:34:31;97202.69;;;21.17;85.99
41044;BME280;51680;49.806;18.774;2023-06-10T06:37:34;97209.00;;;21.16;85.94
41044;BME280;51680;49.806;18.774;2023-06-10T06:40:48;97199.19;;;21.24;85.57
41044;BME280;51680;49.806;18.774;2023-06-10T06:43:53;97206.94;;;21.34;84.50
41044;BME280;51680;49.806;18.774;2023-06-10T06:46:58;97203.13;;;21.36;84.30
41044;BME280;51680;49.806;18.774;2023-06-10T06:50:00;97210.78;;;21.31;84.88
41044;BME280;51680;49.806;18.774;2023-06-10T06:53:02;97212.25;;;21.42;84.51
41044;BME280;51680;49.806;18.774;2023-06-10T06:56:04;97214.22;;;21.56;83.60
41044;BME280;51680;49.806;18.774;2023-06-10T06:59:07;97217.69;;;21.64;82.71
41044;BME280;51680;49.806;18.774;2023-06-10T07:02:10;97221.19;;;21.65;83.12
41044;BME280;51680;49.806;18.774;2023-06-10T07:05:12;97225.00;;;21.62;83.51
41044;BME280;51680;49.806;18.774;2023-06-10T07:08:14;97228.50;;;21.71;83.71
41044;BME280;51680;49.806;18.774;2023-06-10T07:11:16;97227.16;;;21.59;83.25
41044;BME280;51680;49.806;18.774;2023-06-10T07:14:19;97241.59;;;21.56;83.10
41044;BME280;51680;49.806;18.774;2023-06-10T07:17:21;97237.16;;;21.41;83.96
41044;BME280;51680;49.806;18.774;2023-06-10T07:20:22;97233.84;;;21.39;83.53
41044;BME280;51680;49.806;18.774;2023-06-10T07:23:24;97229.16;;;21.65;83.31
41044;BME280;51680;49.806;18.774;2023-06-10T07:26:26;97232.09;;;21.86;82.19
41044;BME280;51680;49.806;18.774;2023-06-10T07:29:29;97229.03;;;22.05;81.90
41044;BME280;51680;49.806;18.774;2023-06-10T07:32:31;97238.88;;;21.96;81.84
41044;BME280;51680;49.806;18.774;2023-06-10T07:35:33;97239.59;;;21.74;82.24
41044;BME280;51680;49.806;18.774;2023-06-10T07:38:34;97246.09;;;21.48;82.72
41044;BME280;51680;49.806;18.774;2023-06-10T07:41:36;97250.78;;;21.30;83.16
41044;BME280;51680;49.806;18.774;2023-06-10T07:44:39;97249.81;;;21.31;83.59
41044;BME280;51680;49.806;18.774;2023-06-10T07:47:42;97250.28;;;21.42;83.36
41044;BME280;51680;49.806;18.774;2023-06-10T07:50:44;97246.09;;;21.64;83.68
41044;BME280;51680;49.806;18.774;2023-06-10T07:53:46;97249.69;;;21.87;82.83
41044;BME280;51680;49.806;18.774;2023-06-10T07:56:48;97255.16;;;22.01;82.04
41044;BME280;51680;49.806;18.774;2023-06-10T07:59:51;97262.97;;;21.87;82.48
41044;BME280;51680;49.806;18.774;2023-06-10T08:02:52;97263.84;;;21.63;82.76
41044;BME280;51680;49.806;18.774;2023-06-10T08:05:54;97258.06;;;21.60;83.03
41044;BME280;51680;49.806;18.774;2023-06-10T08:08:56;97271.84;;;21.71;83.04
41044;BME280;51680;49.806;18.774;2023-06-10T08:12:16;97271.19;;;21.53;83.41
41044;BME280;51680;49.806;18.774;2023-06-10T08:15:21;97279.00;;;20.91;86.09
41044;BME280;51680;49.806;18.774;2023-06-10T08:18:23;97290.38;;;20.67;86.46
41044;BME280;51680;49.806;18.774;2023-06-10T08:21:24;97280.88;;;20.49;88.67
41044;BME280;51680;49.806;18.774;2023-06-10T08:24:28;97276.63;;;20.64;87.39
41044;BME280;51680;49.806;18.774;2023-06-10T08:27:30;97278.63;;;20.86;86.38
41044;BME280;51680;49.806;18.774;2023-06-10T08:30:33;97276.28;;;20.75;86.94
41044;BME280;51680;49.806;18.774;2023-06-10T08:33:35;97273.69;;;20.99;85.76
41044;BME280;51680;49.806;18.774;2023-06-10T08:36:36;97277.34;;;21.14;85.43
41044;BME280;51680;49.806;18.774;2023-06-10T08:39:38;97282.66;;;21.30;84.80
41044;BME280;51680;49.806;18.774;2023-06-10T08:42:43;97268.03;;;21.34;85.41
41044;BME280;51680;49.806;18.774;2023-06-10T08:45:48;97275.16;;;21.49;84.14
41044;BME280;51680;49.806;18.774;2023-06-10T08:48:54;97274.31;;;21.65;82.99
41044;BME280;51680;49.806;18.774;2023-06-10T08:51:58;97270.97;;;21.87;82.39
41044;BME280;51680;49.806;18.774;2023-06-10T08:55:04;97272.66;;;22.26;80.60
41044;BME280;51680;49.806;18.774;2023-06-10T08:58:06;97273.09;;;22.46;79.98
41044;BME280;51680;49.806;18.774;2023-06-10T09:01:09;97279.03;;;22.56;79.25
41044;BME280;51680;49.806;18.774;2023-06-10T09:04:12;97286.66;;;22.12;79.52
41044;BME280;51680;49.806;18.774;2023-06-10T09:07:15;97282.31;;;21.49;82.19
41044;BME280;51680;49.806;18.774;2023-06-10T09:10:17;97278.00;;;21.48;82.47
41044;BME280;51680;49.806;18.774;2023-06-10T09:13:19;97275.16;;;21.41;83.00
41044;BME280;51680;49.806;18.774;2023-06-10T09:16:23;97282.97;;;21.75;82.74
41044;BME280;51680;49.806;18.774;2023-06-10T09:19:25;97274.38;;;22.11;80.06
41044;BME280;51680;49.806;18.774;2023-06-10T09:22:28;97285.16;;;22.18;79.79
41044;BME280;51680;49.806;18.774;2023-06-10T09:25:56;97270.78;;;22.35;78.41
41044;BME280;51680;49.806;18.774;2023-06-10T09:29:02;97279.16;;;22.62;76.63
41044;BME280;51680;49.806;18.774;2023-06-10T09:32:07;97283.03;;;22.52;75.62
41044;BME280;51680;49.806;18.774;2023-06-10T09:35:09;97289.72;;;22.78;75.67
41044;BME280;51680;49.806;18.774;2023-06-10T09:38:13;97274.97;;;22.68;74.22
41044;BME280;51680;49.806;18.774;2023-06-10T09:41:14;97283.31;;;22.65;74.09
41044;BME280;51680;49.806;18.774;2023-06-10T09:44:17;97273.06;;;23.29;72.79
41044;BME280;51680;49.806;18.774;2023-06-10T09:47:21;97277.78;;;23.42;71.36
41044;BME280;51680;49.806;18.774;2023-06-10T09:50:23;97270.31;;;23.15;72.11
41044;BME280;51680;49.806;18.774;2023-06-10T09:53:25;97297.75;;;22.32;72.98
41044;BME280;51680;49.806;18.774;2023-06-10T09:56:33;97288.59;;;21.80;74.44
41044;BME280;51680;49.806;18.774;2023-06-10T09:59:37;97290.59;;;21.78;73.24
41044;BME280;51680;49.806;18.774;2023-06-10T10:02:48;97285.44;;;22.31;74.04
41044;BME280;51680;49.806;18.774;2023-06-10T10:05:57;97272.69;;;23.32;70.96
41044;BME280;51680;49.806;18.774;2023-06-10T10:09:00;97273.63;;;23.91;69.75
41044;BME280;51680;49.806;18.774;2023-06-10T10:12:09;97277.13;;;24.35;68.25
41044;BME280;51680;49.806;18.774;2023-06-10T10:15:12;97261.78;;;24.08;68.72
41044;BME280;51680;49.806;18.774;2023-06-10T10:18:17;97262.06;;;24.13;68.84
41044;BME280;51680;49.806;18.774;2023-06-10T10:21:24;97266.25;;;24.51;68.04
41044;BME280;51680;49.806;18.774;2023-06-10T10:24:33;97259.44;;;24.34;67.65
41044;BME280;51680;49.806;18.774;2023-06-10T10:27:38;97267.47;;;24.19;68.57
41044;BME280;51680;49.806;18.774;2023-06-10T10:30:44;97264.16;;;24.32;68.76
41044;BME280;51680;49.806;18.774;2023-06-10T10:33:54;97251.47;;;24.55;67.98
41044;BME280;51680;49.806;18.774;2023-06-10T10:36:57;97232.03;;;24.75;66.51
41044;BME280;51680;49.806;18.774;2023-06-10T10:40:00;97235.28;;;24.92;66.36
41044;BME280;51680;49.806;18.774;2023-06-10T10:43:02;97240.72;;;24.63;65.31
41044;BME280;51680;49.806;18.774;2023-06-10T10:46:12;97245.31;;;24.19;65.89
41044;BME280;51680;49.806;18.774;2023-06-10T10:49:16;97258.09;;;24.09;67.42
41044;BME280;51680;49.806;18.774;2023-06-10T10:52:19;97240.69;;;23.84;67.36
41044;BME280;51680;49.806;18.774;2023-06-10T10:55:21;97246.84;;;24.28;67.86
41044;BME280;51680;49.806;18.774;2023-06-10T10:58:24;97238.63;;;24.44;65.23
41044;BME280;51680;49.806;18.774;2023-06-10T11:01:39;97251.00;;;23.72;64.94
41044;BME280;51680;49.806;18.774;2023-06-10T11:04:46;97235.72;;;23.81;68.15
41044;BME280;51680;49.806;18.774;2023-06-10T11:07:55;97236.84;;;24.01;67.37
41044;BME280;51680;49.806;18.774;2023-06-10T11:10:57;97232.78;;;24.19;66.32
41044;BME280;51680;49.806;18.774;2023-06-10T11:14:06;97228.31;;;24.41;65.08
41044;BME280;51680;49.806;18.774;2023-06-10T11:17:18;97244.75;;;23.94;66.03
41044;BME280;51680;49.806;18.774;2023-06-10T11:20:55;97241.81;;;24.04;66.87
41044;BME280;51680;49.806;18.774;2023-06-10T11:23:58;97253.72;;;23.64;66.37
41044;BME280;51680;49.806;18.774;2023-06-10T11:27:16;97242.50;;;23.69;67.23
41044;BME280;51680;49.806;18.774;2023-06-10T11:30:19;97239.78;;;24.20;67.19
41044;BME280;51680;49.806;18.774;2023-06-10T11:33:22;97222.38;;;24.74;65.88
41044;BME280;51680;49.806;18.774;2023-06-10T11:36:26;97227.75;;;25.02;63.33
41044;BME280;51680;49.806;18.774;2023-06-10T11:39:28;97222.50;;;25.08;64.22
41044;BME280;51680;49.806;18.774;2023-06-10T11:42:30;97205.47;;;25.37;63.06
41044;BME280;51680;49.806;18.774;2023-06-10T11:45:32;97212.53;;;25.23;63.70
41044;BME280;51680;49.806;18.774;2023-06-10T11:48:34;97219.50;;;25.39;63.00
41044;BME280;51680;49.806;18.774;2023-06-10T11:51:37;97214.81;;;25.47;62.06
41044;BME280;51680;49.806;18.774;2023-06-10T11:54:40;97218.31;;;25.48;63.06
41044;BME280;51680;49.806;18.774;2023-06-10T11:57:42;97218.13;;;25.49;64.08
41044;BME280;51680;49.806;18.774;2023-06-10T12:00:45;97211.78;;;25.29;65.33
41044;BME280;51680;49.806;18.774;2023-06-10T12:03:47;97231.47;;;25.01;66.27
41044;BME280;51680;49.806;18.774;2023-06-10T12:06:51;97240.44;;;24.58;67.85
41044;BME280;51680;49.806;18.774;2023-06-10T12:09:58;97244.28;;;24.34;69.03
41044;BME280;51680;49.806;18.774;2023-06-10T12:13:01;97238.50;;;24.16;70.33
41044;BME280;51680;49.806;18.774;2023-06-10T12:16:06;97240.09;;;23.96;71.87
41044;BME280;51680;49.806;18.774;2023-06-10T12:19:09;97236.75;;;23.94;71.76
41044;BME280;51680;49.806;18.774;2023-06-10T12:22:13;97243.63;;;23.89;72.84
41044;BME280;51680;49.806;18.774;2023-06-10T12:25:15;97250.47;;;23.91;72.31
41044;BME280;51680;49.806;18.774;2023-06-10T12:28:16;97258.47;;;23.91;73.02
41044;BME280;51680;49.806;18.774;2023-06-10T12:31:20;97261.63;;;23.58;74.82
41044;BME280;51680;49.806;18.774;2023-06-10T12:34:37;97272.03;;;23.67;71.41
41044;BME280;51680;49.806;18.774;2023-06-10T12:37:41;97251.69;;;23.52;71.25
41044;BME280;51680;49.806;18.774;2023-06-10T12:40:43;97262.84;;;23.33;71.74
41044;BME280;51680;49.806;18.774;2023-06-10T12:43:46;97265.53;;;23.33;70.72
41044;BME280;51680;49.806;18.774;2023-06-10T12:46:54;97290.00;;;23.06;70.78
41044;BME280;51680;49.806;18.774;2023-06-10T12:49:56;97283.50;;;22.17;73.40
41044;BME280;51680;49.806;18.774;2023-06-10T12:52:59;97273.13;;;21.91;75.43
41044;BME280;51680;49.806;18.774;2023-06-10T12:56:00;97262.00;;;21.88;75.92
41044;BME280;51680;49.806;18.774;2023-06-10T12:59:03;97267.34;;;21.72;77.38
41044;BME280;51680;49.806;18.774;2023-06-10T13:02:05;97262.53;;;21.59;78.94
41044;BME280;51680;49.806;18.774;2023-06-10T13:05:09;97266.22;;;21.42;80.48
41044;BME280;51680;49.806;18.774;2023-06-10T13:08:30;97274.03;;;21.12;83.66
41044;BME280;51680;49.806;18.774;2023-06-10T13:11:32;97265.09;;;20.97;84.55
41044;BME280;51680;49.806;18.774;2023-06-10T13:14:35;97271.03;;;20.91;85.32
41044;BME280;51680;49.806;18.774;2023-06-10T13:17:37;97267.19;;;20.85;85.41
41044;BME280;51680;49.806;18.774;2023-06-10T13:20:41;97256.75;;;20.84;85.94
41044;BME280;51680;49.806;18.774;2023-06-10T13:23:45;97258.22;;;20.78;87.19
41044;BME280;51680;49.806;18.774;2023-06-10T13:26:47;97251.75;;;20.73;87.43
41044;BME280;51680;49.806;18.774;2023-06-10T13:29:49;97257.06;;;20.73;87.89
41044;BME280;51680;49.806;18.774;2023-06-10T13:32:51;97250.44;;;20.85;86.98
41044;BME280;51680;49.806;18.774;2023-06-10T13:35:53;97247.13;;;20.91;87.89
41044;BME280;51680;49.806;18.774;2023-06-10T13:38:56;97257.09;;;21.05;86.97
41044;BME280;51680;49.806;18.774;2023-06-10T13:41:57;97253.44;;;21.14;86.76
41044;BME280;51680;49.806;18.774;2023-06-10T13:44:59;97250.63;;;21.23;86.56
41044;BME280;51680;49.806;18.774;2023-06-10T13:48:01;97253.59;;;21.36;86.30
41044;BME280;51680;49.806;18.774;2023-06-10T13:51:04;97249.13;;;21.37;87.32
41044;BME280;51680;49.806;18.774;2023-06-10T13:54:08;97253.28;;;21.47;86.30
41044;BME280;51680;49.806;18.774;2023-06-10T13:57:10;97268.69;;;21.60;86.36
41044;BME280;51680;49.806;18.774;2023-06-10T14:00:12;97258.72;;;21.62;86.70
41044;BME280;51680;49.806;18.774;2023-06-10T14:03:15;97252.03;;;21.82;86.87
41044;BME280;51680;49.806;18.774;2023-06-10T14:06:16;97252.03;;;21.90;85.06
41044;BME280;51680;49.806;18.774;2023-06-10T14:09:20;97261.69;;;21.83;85.76
41044;BME280;51680;49.806;18.774;2023-06-10T14:12:22;97257.41;;;21.50;87.77
41044;BME280;51680;49.806;18.774;2023-06-10T14:15:24;97262.72;;;21.34;88.69
41044;BME280;51680;49.806;18.774;2023-06-10T14:18:26;97244.50;;;21.31;88.65
41044;BME280;51680;49.806;18.774;2023-06-10T14:21:27;97261.41;;;21.06;87.09
41044;BME280;51680;49.806;18.774;2023-06-10T14:24:30;97239.84;;;21.09;86.81
41044;BME280;51680;49.806;18.774;2023-06-10T14:27:32;97258.75;;;21.06;87.03
41044;BME280;51680;49.806;18.774;2023-06-10T14:30:34;97243.50;;;21.00;84.90
41044;BME280;51680;49.806;18.774;2023-06-10T14:33:36;97241.66;;;20.92;84.10
41044;BME280;51680;49.806;18.774;2023-06-10T14:36:37;97233.38;;;21.03;84.03
41044;BME280;51680;49.806;18.774;2023-06-10T14:39:41;97227.25;;;21.03;83.66
41044;BME280;51680;49.806;18.774;2023-06-10T14:42:42;97231.22;;;21.15;84.27
41044;BME280;51680;49.806;18.774;2023-06-10T14:45:44;97241.16;;;21.05;83.63
41044;BME280;51680;49.806;18.774;2023-06-10T14:48:46;97228.88;;;21.20;83.65
41044;BME280;51680;49.806;18.774;2023-06-10T14:51:48;97233.34;;;21.43;82.36
41044;BME280;51680;49.806;18.774;2023-06-10T14:54:51;97238.78;;;21.58;80.86
41044;BME280;51680;49.806;18.774;2023-06-10T14:57:53;97242.66;;;21.47;80.28
41044;BME280;51680;49.806;18.774;2023-06-10T15:00:55;97237.81;;;21.35;77.91
41044;BME280;51680;49.806;18.774;2023-06-10T15:04:16;97239.81;;;21.33;79.09
41044;BME280;51680;49.806;18.774;2023-06-10T15:07:17;97235.97;;;21.51;78.86
41044;BME280;51680;49.806;18.774;2023-06-10T15:10:21;97231.22;;;21.31;79.03
41044;BME280;51680;49.806;18.774;2023-06-10T15:13:22;97243.63;;;21.46;78.66
41044;BME280;51680;49.806;18.774;2023-06-10T15:16:24;97235.53;;;21.40;77.91
41044;BME280;51680;49.806;18.774;2023-06-10T15:19:26;97235.84;;;21.45;77.32
41044;BME280;51680;49.806;18.774;2023-06-10T15:22:47;97243.63;;;21.46;77.66
41044;BME280;51680;49.806;18.774;2023-06-10T15:25:50;97240.63;;;21.49;77.18
41044;BME280;51680;49.806;18.774;2023-06-10T15:28:52;97247.25;;;21.69;77.38
41044;BME280;51680;49.806;18.774;2023-06-10T15:31:54;97236.97;;;21.66;75.99
41044;BME280;51680;49.806;18.774;2023-06-10T15:34:55;97248.41;;;21.67;75.07
41044;BME280;51680;49.806;18.774;2023-06-10T15:37:57;97256.72;;;21.72;74.43
41044;BME280;51680;49.806;18.774;2023-06-10T15:41:00;97249.91;;;21.77;75.82
41044;BME280;51680;49.806;18.774;2023-06-10T15:44:02;97245.97;;;22.12;76.00
41044;BME280;51680;49.806;18.774;2023-06-10T15:47:04;97248.44;;;22.13;74.36
41044;BME280;51680;49.806;18.774;2023-06-10T15:50:07;97243.72;;;22.23;74.94
41044;BME280;51680;49.806;18.774;2023-06-10T15:53:08;97259.75;;;22.15;74.18
41044;BME280;51680;49.806;18.774;2023-06-10T15:56:11;97255.50;;;22.37;72.90
41044;BME280;51680;49.806;18.774;2023-06-10T15:59:13;97237.81;;;22.52;73.51